sensor_id;sensor_type;location;lat;lon;timestamp;temperature;humidity
14786;DHT22;7484;49.906;9.058;2023-04-25T00:00:55;9.40;99.90
14786;DHT22;7484;49.906;9.058;2023-04-25T00:03:23;9.40;99.90
14786;DHT22;7484;49.906;9.058;2023-04-25T00:05:50;9.40;99.90
14786;DHT22;7484;49.906;9.058;2023-04-25T00:08:19;9.40;99.90
14786;DHT22;7484;49.906;9.058;2023-04-25T00:10:46;9.30;99.90
14786;DHT22;7484;49.906;9.058;2023-04-25T00:13:14;9.30;99.90
14786;DHT22;7484;49.906;9.058;2023-04-25T00:15:43;9.20;99.90
14786;DHT22;7484;49.906;9.058;2023-04-25T00:18:09;9.20;99.90
14786;DHT22;7484;49.906;9.058;2023-04-25T00:20:36;9.20;99.90
14786;DHT22;7484;49.906;9.058;2023-04-25T00:23:05;9.20;99.90
14786;DHT22;7484;49.906;9.058;2023-04-25T00:25:33;9.10;99.90
14786;DHT22;7484;49.906;9.058;2023-04-25T00:28:00;9.10;99.90
14786;DHT22;7484;49.906;9.058;2023-04-25T00:30:26;9.10;99.90
14786;DHT22;7484;49.906;9.058;2023-04-25T00:32:53;9.10;99.90
14786;DHT22;7484;49.906;9.058;2023-04-25T00:35:20;9.10;99.90
14786;DHT22;7484;49.906;9.058;2023-04-25T00:37:47;9.10;99.90
14786;DHT22;7484;49.906;9.058;2023-04-25T00:40:14;9.10;99.90
14786;DHT22;7484;49.906;9.058;2023-04-25T00:42:42;9.00;99.90
14786;DHT22;7484;49.906;9.058;2023-04-25T00:45:12;8.80;99.90
14786;DHT22;7484;49.906;9.058;2023-04-25T00:47:40;8.70;99.90
14786;DHT22;7484;49.906;9.058;2023-04-25T00:50:07;8.80;99.90
14786;DHT22;7484;49.906;9.058;2023-04-25T00:52:35;8.90;99.90
14786;DHT22;7484;49.906;9.058;2023-04-25T00:55:02;8.90;99.90
14786;DHT22;7484;49.906;9.058;2023-04-25T00:57:29;9.00;99.90
14786;DHT22;7484;49.906;9.058;2023-04-25T00:59:58;9.00;99.90
14786;DHT22;7484;49.906;9.058;2023-04-25T01:02:25;9.00;99.90
14786;DHT22;7484;49.906;9.058;2023-04-25T01:04:52;9.00;99.90
14786;DHT22;7484;49.906;9.058;2023-04-25T01:07:19;8.90;99.90
14786;DHT22;7484;49.906;9.058;2023-04-25T01:09:46;9.00;99.90
14786;DHT22;7484;49.906;9.058;2023-04-25T01:12:13;9.00;99.90
14786;DHT22;7484;49.906;9.058;2023-04-25T01:14:40;9.00;99.90
14786;DHT22;7484;49.906;9.058;2023-04-25T01:17:10;8.90;99.90
14786;DHT22;7484;49.906;9.058;2023-04-25T01:19:37;8.80;99.90
14786;DHT22;7484;49.906;9.058;2023-04-25T01:22:05;8.80;99.90
14786;DHT22;7484;49.906;9.058;2023-04-25T01:24:32;8.80;99.90
14786;DHT22;7484;49.906;9.058;2023-04-25T01:27:00;8.80;99.90
14786;DHT22;7484;49.906;9.058;2023-04-25T01:29:28;8.70;99.90
14786;DHT22;7484;49.906;9.058;2023-04-25T01:31:55;8.70;99.90
14786;DHT22;7484;49.906;9.058;2023-04-25T01:34:23;8.60;99.90
14786;DHT22;7484;49.906;9.058;2023-04-25T01:36:50;8.50;99.90
14786;DHT22;7484;49.906;9.058;2023-04-25T01:39:19;8.60;99.90
14786;DHT22;7484;49.906;9.058;2023-04-25T01:41:46;8.60;99.90
14786;DHT22;7484;49.906;9.058;2023-04-25T01:44:14;8.60;99.90
14786;DHT22;7484;49.906;9.058;2023-04-25T01:46:41;8.70;99.90
14786;DHT22;7484;49.906;9.058;2023-04-25T01:49:08;8.70;99.90
14786;DHT22;7484;49.906;9.058;2023-04-25T01:51:35;8.70;99.90
14786;DHT22;7484;49.906;9.058;2023-04-25T01:54:02;8.60;99.90
14786;DHT22;7484;49.906;9.058;2023-04-25T01:56:32;8.70;99.90
14786;DHT22;7484;49.906;9.058;2023-04-25T01:59:00;8.50;99.90
14786;DHT22;7484;49.906;9.058;2023-04-25T02:01:36;8.50;99.90
14786;DHT22;7484;49.906;9.058;2023-04-25T02:04:20;8.50;99.90
14786;DHT22;7484;49.906;9.058;2023-04-25T02:06:47;8.60;99.90
14786;DHT22;7484;49.906;9.058;2023-04-25T02:09:14;8.70;99.90
14786;DHT22;7484;49.906;9.058;2023-04-25T02:11:47;8.80;99.90
14786;DHT22;7484;49.906;9.058;2023-04-25T02:14:52;8.90;99.90
14786;DHT22;7484;49.906;9.058;2023-04-25T02:17:38;9.00;99.90
14786;DHT22;7484;49.906;9.058;2023-04-25T02:20:05;8.80;99.90
14786;DHT22;7484;49.906;9.058;2023-04-25T02:22:32;8.70;99.90
14786;DHT22;7484;49.906;9.058;2023-04-25T02:25:01;8.70;99.90
14786;DHT22;7484;49.906;9.058;2023-04-25T02:27:29;8.70;99.90
14786;DHT22;7484;49.906;9.058;2023-04-25T02:29:56;8.80;99.90
14786;DHT22;7484;49.906;9.058;2023-04-25T02:32:22;8.70;99.90
14786;DHT22;7484;49.906;9.058;2023-04-25T02:34:49;8.70;99.90
14786;DHT22;7484;49.906;9.058;2023-04-25T02:37:16;8.60;99.90
14786;DHT22;7484;49.906;9.058;2023-04-25T02:39:44;8.60;99.90
14786;DHT22;7484;49.906;9.058;2023-04-25T02:42:11;8.60;99.90
14786;DHT22;7484;49.906;9.058;2023-04-25T02:44:39;8.60;99.90
14786;DHT22;7484;49.906;9.058;2023-04-25T02:47:06;8.70;99.90
14786;DHT22;7484;49.906;9.058;2023-04-25T02:49:33;8.70;99.90
14786;DHT22;7484;49.906;9.058;2023-04-25T02:51:59;8.80;99.90
14786;DHT22;7484;49.906;9.058;2023-04-25T02:54:26;8.80;99.90
14786;DHT22;7484;49.906;9.058;2023-04-25T02:56:58;8.80;99.90
14786;DHT22;7484;49.906;9.058;2023-04-25T02:59:30;8.80;99.90
14786;DHT22;7484;49.906;9.058;2023-04-25T03:01:58;8.80;99.90
14786;DHT22;7484;49.906;9.058;2023-04-25T03:04:24;8.70;99.90
14786;DHT22;7484;49.906;9.058;2023-04-25T03:06:51;8.70;99.90
14786;DHT22;7484;49.906;9.058;2023-04-25T03:09:20;8.70;99.90
14786;DHT22;7484;49.906;9.058;2023-04-25T03:11:47;8.70;99.90
14786;DHT22;7484;49.906;9.058;2023-04-25T03:14:14;8.70;99.90
14786;DHT22;7484;49.906;9.058;2023-04-25T03:16:41;8.60;99.90
14786;DHT22;7484;49.906;9.058;2023-04-25T03:19:09;8.60;99.90
14786;DHT22;7484;49.906;9.058;2023-04-25T03:21:36;8.70;99.90
14786;DHT22;7484;49.906;9.058;2023-04-25T03:24:04;8.80;99.90
14786;DHT22;7484;49.906;9.058;2023-04-25T03:26:31;8.60;99.90
14786;DHT22;7484;49.906;9.058;2023-04-25T03:28:59;8.70;99.90
14786;DHT22;7484;49.906;9.058;2023-04-25T03:31:26;8.80;99.90
14786;DHT22;7484;49.906;9.058;2023-04-25T03:33:53;8.80;99.90
14786;DHT22;7484;49.906;9.058;2023-04-25T03:36:23;8.80;99.90
14786;DHT22;7484;49.906;9.058;2023-04-25T03:38:50;8.70;99.90
14786;DHT22;7484;49.906;9.058;2023-04-25T03:41:17;8.50;99.90
14786;DHT22;7484;49.906;9.058;2023-04-25T03:43:52;8.40;99.90
14786;DHT22;7484;49.906;9.058;2023-04-25T03:46:18;8.40;99.90
14786;DHT22;7484;49.906;9.058;2023-04-25T03:48:46;8.30;99.90
14786;DHT22;7484;49.906;9.058;2023-04-25T03:51:19;8.30;99.90
14786;DHT22;7484;49.906;9.058;2023-04-25T03:53:48;8.40;99.90
14786;DHT22;7484;49.906;9.058;2023-04-25T03:56:14;8.50;99.90
14786;DHT22;7484;49.906;9.058;2023-04-25T03:58:44;8.60;99.90
14786;DHT22;7484;49.906;9.058;2023-04-25T04:01:13;8.70;99.90
14786;DHT22;7484;49.906;9.058;2023-04-25T04:03:40;8.60;99.90
14786;DHT22;7484;49.906;9.058;2023-04-25T04:06:07;8.60;99.90
14786;DHT22;7484;49.906;9.058;2023-04-25T04:08:48;8.70;99.90
14786;DHT22;7484;49.906;9.058;2023-04-25T04:11:15;8.80;99.90
14786;DHT22;7484;49.906;9.058;2023-04-25T04:13:42;8.60;99.90
14786;DHT22;7484;49.906;9.058;2023-04-25T04:16:08;8.50;99.90
14786;DHT22;7484;49.906;9.058;2023-04-25T04:18:36;8.40;99.90
14786;DHT22;7484;49.906;9.058;2023-04-25T04:21:02;8.40;99.90
14786;DHT22;7484;49.906;9.058;2023-04-25T04:23:32;8.40;99.90
14786;DHT22;7484;49.906;9.058;2023-04-25T04:26:01;8.50;99.90
14786;DHT22;7484;49.906;9.058;2023-04-25T04:28:55;8.60;99.90
14786;DHT22;7484;49.906;9.058;2023-04-25T04:31:30;8.70;99.90
14786;DHT22;7484;49.906;9.058;2023-04-25T04:33:58;8.50;99.90
14786;DHT22;7484;49.906;9.058;2023-04-25T04:36:27;8.40;99.90
14786;DHT22;7484;49.906;9.058;2023-04-25T04:38:54;8.40;99.90
14786;DHT22;7484;49.906;9.058;2023-04-25T04:41:34;8.50;99.90
14786;DHT22;7484;49.906;9.058;2023-04-25T04:44:28;8.60;99.90
14786;DHT22;7484;49.906;9.058;2023-04-25T04:47:15;8.70;99.90
14786;DHT22;7484;49.906;9.058;2023-04-25T04:49:57;8.70;99.90
14786;DHT22;7484;49.906;9.058;2023-04-25T04:52:40;8.80;99.90
14786;DHT22;7484;49.906;9.058;2023-04-25T04:55:32;8.80;99.90
14786;DHT22;7484;49.906;9.058;2023-04-25T04:58:22;8.90;99.90
14786;DHT22;7484;49.906;9.058;2023-04-25T05:01:03;8.90;99.90
14786;DHT22;7484;49.906;9.058;2023-04-25T05:03:53;9.00;99.90
14786;DHT22;7484;49.906;9.058;2023-04-25T05:06:45;8.90;99.90
14786;DHT22;7484;49.906;9.058;2023-04-25T05:09:28;8.90;99.90
14786;DHT22;7484;49.906;9.058;2023-04-25T05:12:18;8.80;99.90
14786;DHT22;7484;49.906;9.058;2023-04-25T05:14:59;8.80;99.90
14786;DHT22;7484;49.906;9.058;2023-04-25T05:17:59;8.80;99.90
14786;DHT22;7484;49.906;9.058;2023-04-25T05:20:46;8.80;99.90
14786;DHT22;7484;49.906;9.058;2023-04-25T05:23:22;8.70;99.90
14786;DHT22;7484;49.906;9.058;2023-04-25T05:25:56;8.80;99.90
14786;DHT22;7484;49.906;9.058;2023-04-25T05:28:55;8.80;99.90
14786;DHT22;7484;49.906;9.058;2023-04-25T05:31:49;8.80;99.90
14786;DHT22;7484;49.906;9.058;2023-04-25T05:34:16;8.80;99.90
14786;DHT22;7484;49.906;9.058;2023-04-25T05:37:01;8.80;99.90
14786;DHT22;7484;49.906;9.058;2023-04-25T05:39:28;8.80;99.90
14786;DHT22;7484;49.906;9.058;2023-04-25T05:42:07;8.60;99.90
14786;DHT22;7484;49.906;9.058;2023-04-25T05:45:01;8.40;99.90
14786;DHT22;7484;49.906;9.058;2023-04-25T05:47:44;8.40;99.90
14786;DHT22;7484;49.906;9.058;2023-04-25T05:50:16;8.30;99.90
14786;DHT22;7484;49.906;9.058;2023-04-25T05:53:13;8.30;99.90
14786;DHT22;7484;49.906;9.058;2023-04-25T05:55:41;8.30;99.90
14786;DHT22;7484;49.906;9.058;2023-04-25T05:58:28;8.30;99.90
14786;DHT22;7484;49.906;9.058;2023-04-25T06:00:56;8.30;99.90
14786;DHT22;7484;49.906;9.058;2023-04-25T06:03:24;8.20;99.90
14786;DHT22;7484;49.906;9.058;2023-04-25T06:05:52;8.20;99.90
14786;DHT22;7484;49.906;9.058;2023-04-25T06:08:19;8.20;99.90
14786;DHT22;7484;49.906;9.058;2023-04-25T06:10:45;8.30;99.90
14786;DHT22;7484;49.906;9.058;2023-04-25T06:13:13;8.30;99.90
14786;DHT22;7484;49.906;9.058;2023-04-25T06:15:41;8.20;99.90
14786;DHT22;7484;49.906;9.058;2023-04-25T06:18:08;8.20;99.90
14786;DHT22;7484;49.906;9.058;2023-04-25T06:20:37;8.30;99.90
14786;DHT22;7484;49.906;9.058;2023-04-25T06:23:04;8.30;99.90
14786;DHT22;7484;49.906;9.058;2023-04-25T06:25:50;8.30;99.90
14786;DHT22;7484;49.906;9.058;2023-04-25T06:28:17;8.30;99.90
14786;DHT22;7484;49.906;9.058;2023-04-25T06:30:47;8.40;99.90
14786;DHT22;7484;49.906;9.058;2023-04-25T06:33:17;8.50;99.90
14786;DHT22;7484;49.906;9.058;2023-04-25T06:35:46;8.60;99.90
14786;DHT22;7484;49.906;9.058;2023-04-25T06:38:16;8.70;99.90
14786;DHT22;7484;49.906;9.058;2023-04-25T06:40:46;8.80;99.90
14786;DHT22;7484;49.906;9.058;2023-04-25T06:43:13;8.80;99.90
14786;DHT22;7484;49.906;9.058;2023-04-25T06:45:49;8.90;99.90
14786;DHT22;7484;49.906;9.058;2023-04-25T06:48:16;9.10;99.90
14786;DHT22;7484;49.906;9.058;2023-04-25T06:50:43;9.40;99.90
14786;DHT22;7484;49.906;9.058;2023-04-25T06:53:12;9.60;99.90
14786;DHT22;7484;49.906;9.058;2023-04-25T06:55:41;9.80;99.90
14786;DHT22;7484;49.906;9.058;2023-04-25T06:58:13;10.00;99.90
14786;DHT22;7484;49.906;9.058;2023-04-25T07:00:54;10.10;99.90
14786;DHT22;7484;49.906;9.058;2023-04-25T07:03:24;10.10;99.90
14786;DHT22;7484;49.906;9.058;2023-04-25T07:05:55;10.20;99.90
14786;DHT22;7484;49.906;9.058;2023-04-25T07:08:24;10.30;99.90
14786;DHT22;7484;49.906;9.058;2023-04-25T07:10:51;10.20;99.90
14786;DHT22;7484;49.906;9.058;2023-04-25T07:13:17;10.20;99.90
14786;DHT22;7484;49.906;9.058;2023-04-25T07:15:44;10.20;99.90
14786;DHT22;7484;49.906;9.058;2023-04-25T07:18:13;10.20;99.90
14786;DHT22;7484;49.906;9.058;2023-04-25T07:20:39;10.20;99.90
14786;DHT22;7484;49.906;9.058;2023-04-25T07:23:06;10.10;99.90
14786;DHT22;7484;49.906;9.058;2023-04-25T07:25:34;10.10;99.90
14786;DHT22;7484;49.906;9.058;2023-04-25T07:28:01;10.30;99.90
14786;DHT22;7484;49.906;9.058;2023-04-25T07:30:28;10.60;99.90
14786;DHT22;7484;49.906;9.058;2023-04-25T07:32:55;10.70;99.90
14786;DHT22;7484;49.906;9.058;2023-04-25T07:35:22;10.60;99.90
14786;DHT22;7484;49.906;9.058;2023-04-25T07:37:49;10.70;99.90
14786;DHT22;7484;49.906;9.058;2023-04-25T07:40:18;10.60;99.90
14786;DHT22;7484;49.906;9.058;2023-04-25T07:42:50;10.60;99.90
14786;DHT22;7484;49.906;9.058;2023-04-25T07:45:23;10.60;99.90
14786;DHT22;7484;49.906;9.058;2023-04-25T07:47:51;10.50;99.90
14786;DHT22;7484;49.906;9.058;2023-04-25T07:50:17;10.50;99.90
14786;DHT22;7484;49.906;9.058;2023-04-25T07:52:46;10.40;99.90
14786;DHT22;7484;49.906;9.058;2023-04-25T07:55:20;10.40;99.90
14786;DHT22;7484;49.906;9.058;2023-04-25T07:58:00;10.50;99.90
14786;DHT22;7484;49.906;9.058;2023-04-25T08:00:29;10.30;99.90
14786;DHT22;7484;49.906;9.058;2023-04-25T08:03:15;10.30;99.90
14786;DHT22;7484;49.906;9.058;2023-04-25T08:05:43;10.20;99.90
14786;DHT22;7484;49.906;9.058;2023-04-25T08:08:11;10.20;99.90
14786;DHT22;7484;49.906;9.058;2023-04-25T08:10:38;10.20;99.90
14786;DHT22;7484;49.906;9.058;2023-04-25T08:13:06;10.20;99.90
14786;DHT22;7484;49.906;9.058;2023-04-25T08:15:33;10.10;99.90
14786;DHT22;7484;49.906;9.058;2023-04-25T08:18:00;10.30;99.90
14786;DHT22;7484;49.906;9.058;2023-04-25T08:20:27;10.40;99.90
14786;DHT22;7484;49.906;9.058;2023-04-25T08:22:55;10.60;99.90
14786;DHT22;7484;49.906;9.058;2023-04-25T08:25:29;10.90;99.90
14786;DHT22;7484;49.906;9.058;2023-04-25T08:27:55;10.90;99.90
14786;DHT22;7484;49.906;9.058;2023-04-25T08:30:24;10.90;99.90
14786;DHT22;7484;49.906;9.058;2023-04-25T08:32:51;11.10;99.90
14786;DHT22;7484;49.906;9.058;2023-04-25T08:35:26;11.10;99.90
14786;DHT22;7484;49.906;9.058;2023-04-25T08:37:52;11.10;99.90
14786;DHT22;7484;49.906;9.058;2023-04-25T08:40:22;10.90;99.90
14786;DHT22;7484;49.906;9.058;2023-04-25T08:42:58;10.90;99.90
14786;DHT22;7484;49.906;9.058;2023-04-25T08:45:31;10.90;99.90
14786;DHT22;7484;49.906;9.058;2023-04-25T08:47:58;11.00;99.90
14786;DHT22;7484;49.906;9.058;2023-04-25T08:50:27;11.10;99.90
14786;DHT22;7484;49.906;9.058;2023-04-25T08:52:59;11.20;99.90
14786;DHT22;7484;49.906;9.058;2023-04-25T08:55:30;11.30;99.90
14786;DHT22;7484;49.906;9.058;2023-04-25T08:57:59;11.50;99.90
14786;DHT22;7484;49.906;9.058;2023-04-25T09:00:27;11.70;99.90
14786;DHT22;7484;49.906;9.058;2023-04-25T09:02:57;11.80;99.90
14786;DHT22;7484;49.906;9.058;2023-04-25T09:05:29;11.80;99.90
14786;DHT22;7484;49.906;9.058;2023-04-25T09:07:56;11.90;99.90
14786;DHT22;7484;49.906;9.058;2023-04-25T09:10:23;12.00;99.90
14786;DHT22;7484;49.906;9.058;2023-04-25T09:13:02;12.20;99.90
14786;DHT22;7484;49.906;9.058;2023-04-25T09:15:32;12.30;99.90
14786;DHT22;7484;49.906;9.058;2023-04-25T09:18:23;12.20;99.90
14786;DHT22;7484;49.906;9.058;2023-04-25T09:20:52;12.00;99.90
14786;DHT22;7484;49.906;9.058;2023-04-25T09:23:19;12.10;99.90
14786;DHT22;7484;49.906;9.058;2023-04-25T09:25:47;12.30;99.90
14786;DHT22;7484;49.906;9.058;2023-04-25T09:28:14;12.20;99.90
14786;DHT22;7484;49.906;9.058;2023-04-25T09:30:42;12.00;99.90
14786;DHT22;7484;49.906;9.058;2023-04-25T09:33:16;11.90;99.90
14786;DHT22;7484;49.906;9.058;2023-04-25T09:35:48;11.80;99.90
14786;DHT22;7484;49.906;9.058;2023-04-25T09:38:30;11.80;99.90
14786;DHT22;7484;49.906;9.058;2023-04-25T09:41:01;11.60;99.90
14786;DHT22;7484;49.906;9.058;2023-04-25T09:43:39;11.70;99.90
14786;DHT22;7484;49.906;9.058;2023-04-25T09:46:08;11.70;99.90
14786;DHT22;7484;49.906;9.058;2023-04-25T09:48:38;11.80;99.90
14786;DHT22;7484;49.906;9.058;2023-04-25T09:51:09;11.90;99.90
14786;DHT22;7484;49.906;9.058;2023-04-25T09:53:38;12.00;99.90
14786;DHT22;7484;49.906;9.058;2023-04-25T09:56:15;12.10;99.90
14786;DHT22;7484;49.906;9.058;2023-04-25T09:58:42;12.10;99.90
14786;DHT22;7484;49.906;9.058;2023-04-25T10:01:10;12.10;99.90
14786;DHT22;7484;49.906;9.058;2023-04-25T10:03:51;12.00;99.90
14786;DHT22;7484;49.906;9.058;2023-04-25T10:06:41;11.90;99.90
14786;DHT22;7484;49.906;9.058;2023-04-25T10:09:09;11.90;99.90
14786;DHT22;7484;49.906;9.058;2023-04-25T10:11:38;11.90;99.90
14786;DHT22;7484;49.906;9.058;2023-04-25T10:14:06;11.80;99.90
14786;DHT22;7484;49.906;9.058;2023-04-25T10:16:33;11.70;99.90
14786;DHT22;7484;49.906;9.058;2023-04-25T10:19:00;11.50;99.90
14786;DHT22;7484;49.906;9.058;2023-04-25T10:21:27;11.40;99.90
14786;DHT22;7484;49.906;9.058;2023-04-25T10:23:57;11.30;99.90
14786;DHT22;7484;49.906;9.058;2023-04-25T10:26:24;11.40;99.90
14786;DHT22;7484;49.906;9.058;2023-04-25T10:28:58;11.40;99.90
14786;DHT22;7484;49.906;9.058;2023-04-25T10:31:26;11.40;99.90
14786;DHT22;7484;49.906;9.058;2023-04-25T10:33:53;11.40;99.90
14786;DHT22;7484;49.906;9.058;2023-04-25T10:36:21;11.40;99.90
14786;DHT22;7484;49.906;9.058;2023-04-25T10:38:49;11.40;99.90
14786;DHT22;7484;49.906;9.058;2023-04-25T10:41:20;11.40;99.90
14786;DHT22;7484;49.906;9.058;2023-04-25T10:43:48;11.40;99.90
14786;DHT22;7484;49.906;9.058;2023-04-25T10:46:17;11.40;99.90
14786;DHT22;7484;49.906;9.058;2023-04-25T10:48:48;11.30;99.90
14786;DHT22;7484;49.906;9.058;2023-04-25T10:51:17;11.30;99.90
14786;DHT22;7484;49.906;9.058;2023-04-25T10:53:44;11.30;99.90
14786;DHT22;7484;49.906;9.058;2023-04-25T10:56:12;11.20;99.90
14786;DHT22;7484;49.906;9.058;2023-04-25T10:58:44;11.30;99.90
14786;DHT22;7484;49.906;9.058;2023-04-25T11:01:12;11.40;99.90
14786;DHT22;7484;49.906;9.058;2023-04-25T11:03:41;11.50;99.90
14786;DHT22;7484;49.906;9.058;2023-04-25T11:06:20;11.70;99.90
14786;DHT22;7484;49.906;9.058;2023-04-25T11:08:49;12.00;99.90
14786;DHT22;7484;49.906;9.058;2023-04-25T11:11:16;12.20;99.90
14786;DHT22;7484;49.906;9.058;2023-04-25T11:13:47;12.30;99.90
14786;DHT22;7484;49.906;9.058;2023-04-25T11:16:14;12.30;99.90
14786;DHT22;7484;49.906;9.058;2023-04-25T11:18:41;12.20;99.90
14786;DHT22;7484;49.906;9.058;2023-04-25T11:21:08;12.20;99.90
14786;DHT22;7484;49.906;9.058;2023-04-25T11:23:35;12.50;99.90
14786;DHT22;7484;49.906;9.058;2023-04-25T11:26:03;12.10;99.90
14786;DHT22;7484;49.906;9.058;2023-04-25T11:28:30;11.90;99.90
14786;DHT22;7484;49.906;9.058;2023-04-25T11:30:58;11.70;99.90
14786;DHT22;7484;49.906;9.058;2023-04-25T11:33:25;11.60;99.90
14786;DHT22;7484;49.906;9.058;2023-04-25T11:35:53;11.60;99.90
14786;DHT22;7484;49.906;9.058;2023-04-25T11:38:20;11.70;99.90
14786;DHT22;7484;49.906;9.058;2023-04-25T11:40:50;11.70;99.90
14786;DHT22;7484;49.906;9.058;2023-04-25T11:43:17;11.70;99.90
14786;DHT22;7484;49.906;9.058;2023-04-25T11:45:47;11.70;99.90
14786;DHT22;7484;49.906;9.058;2023-04-25T11:48:15;11.60;99.90
14786;DHT22;7484;49.906;9.058;2023-04-25T11:50:42;11.50;99.90
14786;DHT22;7484;49.906;9.058;2023-04-25T11:53:09;11.50;99.90
14786;DHT22;7484;49.906;9.058;2023-04-25T11:55:36;11.40;99.90
14786;DHT22;7484;49.906;9.058;2023-04-25T11:58:04;11.50;99.90
14786;DHT22;7484;49.906;9.058;2023-04-25T12:00:31;11.50;99.90
14786;DHT22;7484;49.906;9.058;2023-04-25T12:02:58;11.50;99.90
14786;DHT22;7484;49.906;9.058;2023-04-25T12:05:28;11.40;99.90
14786;DHT22;7484;49.906;9.058;2023-04-25T12:07:56;11.50;99.90
14786;DHT22;7484;49.906;9.058;2023-04-25T12:10:24;11.50;99.90
14786;DHT22;7484;49.906;9.058;2023-04-25T12:12:51;11.50;99.90
14786;DHT22;7484;49.906;9.058;2023-04-25T12:15:24;11.50;99.90
14786;DHT22;7484;49.906;9.058;2023-04-25T12:17:52;11.60;99.90
14786;DHT22;7484;49.906;9.058;2023-04-25T12:20:20;11.70;99.90
14786;DHT22;7484;49.906;9.058;2023-04-25T12:22:51;11.70;99.90
14786;DHT22;7484;49.906;9.058;2023-04-25T12:25:36;11.70;99.90
14786;DHT22;7484;49.906;9.058;2023-04-25T12:28:11;11.50;99.90
14786;DHT22;7484;49.906;9.058;2023-04-25T12:30:55;11.40;99.90
14786;DHT22;7484;49.906;9.058;2023-04-25T12:33:23;11.40;99.90
14786;DHT22;7484;49.906;9.058;2023-04-25T12:35:50;11.40;99.90
14786;DHT22;7484;49.906;9.058;2023-04-25T12:38:26;11.40;99.90
14786;DHT22;7484;49.906;9.058;2023-04-25T12:40:53;11.20;99.90
14786;DHT22;7484;49.906;9.058;2023-04-25T12:43:20;11.10;99.90
14786;DHT22;7484;49.906;9.058;2023-04-25T12:45:47;11.00;99.90
14786;DHT22;7484;49.906;9.058;2023-04-25T12:48:14;11.10;99.90
14786;DHT22;7484;49.906;9.058;2023-04-25T12:50:41;11.10;99.90
14786;DHT22;7484;49.906;9.058;2023-04-25T12:53:08;11.20;99.90
14786;DHT22;7484;49.906;9.058;2023-04-25T12:55:36;11.40;99.90
14786;DHT22;7484;49.906;9.058;2023-04-25T12:58:02;11.40;99.90
14786;DHT22;7484;49.906;9.058;2023-04-25T13:00:29;11.50;99.90
14786;DHT22;7484;49.906;9.058;2023-04-25T13:02:57;11.50;99.90
14786;DHT22;7484;49.906;9.058;2023-04-25T13:05:23;11.50;99.90
14786;DHT22;7484;49.906;9.058;2023-04-25T13:07:50;11.60;99.90
14786;DHT22;7484;49.906;9.058;2023-04-25T13:10:17;11.80;99.90
14786;DHT22;7484;49.906;9.058;2023-04-25T13:12:45;12.00;99.90
14786;DHT22;7484;49.906;9.058;2023-04-25T13:15:12;12.10;99.90
14786;DHT22;7484;49.906;9.058;2023-04-25T13:17:40;12.10;99.90
14786;DHT22;7484;49.906;9.058;2023-04-25T13:20:08;12.10;99.90
14786;DHT22;7484;49.906;9.058;2023-04-25T13:22:36;12.10;99.90
14786;DHT22;7484;49.906;9.058;2023-04-25T13:25:03;12.30;99.90
14786;DHT22;7484;49.906;9.058;2023-04-25T13:27:30;12.40;99.90
14786;DHT22;7484;49.906;9.058;2023-04-25T13:30:00;12.30;99.90
14786;DHT22;7484;49.906;9.058;2023-04-25T13:32:32;12.20;99.90
14786;DHT22;7484;49.906;9.058;2023-04-25T13:34:59;11.90;99.90
14786;DHT22;7484;49.906;9.058;2023-04-25T13:37:26;11.80;99.90
14786;DHT22;7484;49.906;9.058;2023-04-25T13:39:53;11.70;99.90
14786;DHT22;7484;49.906;9.058;2023-04-25T13:42:20;11.70;99.90
14786;DHT22;7484;49.906;9.058;2023-04-25T13:44:47;11.60;99.90
14786;DHT22;7484;49.906;9.058;2023-04-25T13:47:15;11.50;99.90
14786;DHT22;7484;49.906;9.058;2023-04-25T13:49:42;11.40;99.90
14786;DHT22;7484;49.906;9.058;2023-04-25T13:52:08;11.50;99.90
14786;DHT22;7484;49.906;9.058;2023-04-25T13:54:35;11.50;99.90
14786;DHT22;7484;49.906;9.058;2023-04-25T13:57:02;11.50;99.90
14786;DHT22;7484;49.906;9.058;2023-04-25T13:59:29;11.60;99.90
14786;DHT22;7484;49.906;9.058;2023-04-25T14:01:55;11.60;99.90
14786;DHT22;7484;49.906;9.058;2023-04-25T14:04:24;11.70;99.90
14786;DHT22;7484;49.906;9.058;2023-04-25T14:06:50;11.70;99.90
14786;DHT22;7484;49.906;9.058;2023-04-25T14:09:18;11.80;99.90
14786;DHT22;7484;49.906;9.058;2023-04-25T14:11:46;11.80;99.90
14786;DHT22;7484;49.906;9.058;2023-04-25T14:14:13;11.90;99.90
14786;DHT22;7484;49.906;9.058;2023-04-25T14:16:41;11.90;99.90
14786;DHT22;7484;49.906;9.058;2023-04-25T14:19:08;12.00;99.90
14786;DHT22;7484;49.906;9.058;2023-04-25T14:21:36;12.00;99.90
14786;DHT22;7484;49.906;9.058;2023-04-25T14:24:04;12.10;99.90
14786;DHT22;7484;49.906;9.058;2023-04-25T14:26:33;12.30;99.90
14786;DHT22;7484;49.906;9.058;2023-04-25T14:29:00;12.40;99.90
14786;DHT22;7484;49.906;9.058;2023-04-25T14:31:27;12.60;99.90
14786;DHT22;7484;49.906;9.058;2023-04-25T14:33:54;12.50;99.90
14786;DHT22;7484;49.906;9.058;2023-04-25T14:36:21;12.60;99.90
14786;DHT22;7484;49.906;9.058;2023-04-25T14:38:49;12.80;99.90
14786;DHT22;7484;49.906;9.058;2023-04-25T14:41:15;12.90;99.90
14786;DHT22;7484;49.906;9.058;2023-04-25T14:43:42;12.70;99.90
14786;DHT22;7484;49.906;9.058;2023-04-25T14:46:10;12.60;99.90
14786;DHT22;7484;49.906;9.058;2023-04-25T14:48:37;12.50;99.90
14786;DHT22;7484;49.906;9.058;2023-04-25T14:51:04;12.40;99.90
14786;DHT22;7484;49.906;9.058;2023-04-25T14:53:31;12.40;99.90
14786;DHT22;7484;49.906;9.058;2023-04-25T14:55:59;12.40;99.90
14786;DHT22;7484;49.906;9.058;2023-04-25T14:58:26;12.30;99.90
14786;DHT22;7484;49.906;9.058;2023-04-25T15:00:53;12.30;99.90
14786;DHT22;7484;49.906;9.058;2023-04-25T15:03:20;12.30;99.90
14786;DHT22;7484;49.906;9.058;2023-04-25T15:05:47;12.20;99.90
14786;DHT22;7484;49.906;9.058;2023-04-25T15:08:13;12.20;99.90
14786;DHT22;7484;49.906;9.058;2023-04-25T15:10:40;12.10;99.90
14786;DHT22;7484;49.906;9.058;2023-04-25T15:13:08;12.10;99.90
14786;DHT22;7484;49.906;9.058;2023-04-25T15:15:36;12.00;99.90
14786;DHT22;7484;49.906;9.058;2023-04-25T15:18:02;12.00;99.90
14786;DHT22;7484;49.906;9.058;2023-04-25T15:20:29;12.00;99.90
14786;DHT22;7484;49.906;9.058;2023-04-25T15:22:57;12.10;99.90
14786;DHT22;7484;49.906;9.058;2023-04-25T15:25:25;12.20;99.90
14786;DHT22;7484;49.906;9.058;2023-04-25T15:27:53;12.30;99.90
14786;DHT22;7484;49.906;9.058;2023-04-25T15:30:21;12.20;99.90
14786;DHT22;7484;49.906;9.058;2023-04-25T15:32:48;12.20;99.90
14786;DHT22;7484;49.906;9.058;2023-04-25T15:35:15;12.10;99.90
14786;DHT22;7484;49.906;9.058;2023-04-25T15:37:41;12.10;99.90
14786;DHT22;7484;49.906;9.058;2023-04-25T15:40:11;12.00;99.90
14786;DHT22;7484;49.906;9.058;2023-04-25T15:42:38;11.90;99.90
14786;DHT22;7484;49.906;9.058;2023-04-25T15:45:07;11.80;99.90
14786;DHT22;7484;49.906;9.058;2023-04-25T15:47:36;11.60;99.90
14786;DHT22;7484;49.906;9.058;2023-04-25T15:50:05;11.60;99.90
14786;DHT22;7484;49.906;9.058;2023-04-25T15:52:32;11.60;99.90
14786;DHT22;7484;49.906;9.058;2023-04-25T15:54:59;11.70;99.90
14786;DHT22;7484;49.906;9.058;2023-04-25T15:57:26;11.60;99.90
14786;DHT22;7484;49.906;9.058;2023-04-25T15:59:53;11.60;99.90
14786;DHT22;7484;49.906;9.058;2023-04-25T16:02:21;11.50;99.90
14786;DHT22;7484;49.906;9.058;2023-04-25T16:04:49;11.50;99.90
14786;DHT22;7484;49.906;9.058;2023-04-25T16:07:16;11.40;99.90
14786;DHT22;7484;49.906;9.058;2023-04-25T16:09:43;11.40;99.90